createdAt,value
2022-11-19T00:01:30.783Z,95692.25
2022-11-19T00:03:57.170Z,95692.25
2022-11-19T00:06:26.164Z,95690.56
2022-11-19T00:08:55.694Z,95691.06
2022-11-19T00:11:45.638Z,95690.97
2022-11-19T00:14:14.100Z,95701.50
2022-11-19T00:16:45.942Z,95694.03
2022-11-19T00:19:14.895Z,95689.50
2022-11-19T00:21:41.472Z,95684.56
2022-11-19T00:24:08.990Z,95695.09
2022-11-19T00:26:35.490Z,95688.53
2022-11-19T00:29:05.144Z,95684.97
2022-11-19T00:31:31.769Z,95679.22
2022-11-19T00:34:01.106Z,95683.34
2022-11-19T00:36:30.080Z,95690.22
2022-11-19T00:38:56.474Z,95693.09
2022-11-19T00:41:22.984Z,95686.91
2022-11-19T00:43:52.328Z,95691.81
2022-11-19T00:46:28.604Z,95692.06
2022-11-19T00:48:56.834Z,95691.47
2022-11-19T00:51:24.837Z,95693.81
2022-11-19T00:53:54.010Z,95689.28
2022-11-19T00:56:22.686Z,95691.25
2022-11-19T00:58:49.445Z,95692.63
2022-11-19T01:01:16.979Z,95701.97
2022-11-19T01:03:45.714Z,95701.59
2022-11-19T01:06:17.815Z,95700.91
2022-11-19T01:08:49.489Z,95700.38
2022-11-19T01:11:23.726Z,95705.59
2022-11-19T01:13:50.081Z,95703.38
2022-11-19T01:16:28.123Z,95707.75
2022-11-19T01:18:54.754Z,95710.78
2022-11-19T01:21:23.355Z,95720.47
2022-11-19T01:23:50.102Z,95719.00
2022-11-19T01:26:16.686Z,95720.06
2022-11-19T01:28:43.976Z,95724.19
2022-11-19T01:31:19.886Z,95720.88
2022-11-19T01:33:46.454Z,95726.78
2022-11-19T01:36:23.177Z,95721.44
2022-11-19T01:38:54.196Z,95721.13
2022-11-19T01:41:23.713Z,95735.13
2022-11-19T01:43:58.877Z,95733.75
2022-11-19T01:46:27.755Z,95727.47
2022-11-19T01:48:59.140Z,95739.53
2022-11-19T01:51:37.932Z,95740.94
2022-11-19T01:54:35.237Z,95739.81
2022-11-19T01:57:04.618Z,95743.38
2022-11-19T01:59:31.870Z,95751.59
2022-11-19T02:01:58.529Z,95743.22
2022-11-19T02:04:26.746Z,95753.66
2022-11-19T02:06:54.318Z,95746.31
2022-11-19T02:09:21.474Z,95752.59
2022-11-19T02:12:09.405Z,95759.47
2022-11-19T02:14:38.952Z,95755.25
2022-11-19T02:17:11.123Z,95759.63
2022-11-19T02:19:43.494Z,95763.00
2022-11-19T02:22:32.472Z,95755.38
2022-11-19T02:25:25.333Z,95754.41
2022-11-19T02:28:10.945Z,95750.28
2022-11-19T02:30:42.186Z,95754.38
2022-11-19T02:33:25.971Z,95751.22
2022-11-19T02:36:01.917Z,95748.34
2022-11-19T02:38:39.849Z,95752.44
2022-11-19T02:41:35.677Z,95750.00
2022-11-19T02:44:45.803Z,95750.00
2022-11-19T02:47:17.532Z,95751.66
2022-11-19T02:49:45.307Z,95753.03
2022-11-19T02:52:14.513Z,95753.34
2022-11-19T02:54:41.244Z,95754.13
2022-11-19T02:57:10.253Z,95756.19
2022-11-19T03:00:05.697Z,95753.63
2022-11-19T03:03:10.890Z,95750.34
2022-11-19T03:05:40.550Z,95755.78
2022-11-19T03:08:07.212Z,95747.38
2022-11-19T03:10:43.230Z,95754.28
2022-11-19T03:13:39.900Z,95752.50
2022-11-19T03:16:30.173Z,95754.66
2022-11-19T03:19:07.356Z,95752.78
2022-11-19T03:21:39.550Z,95752.53
2022-11-19T03:24:14.201Z,95749.94
2022-11-19T03:27:04.210Z,95747.84
2022-11-19T03:29:35.189Z,95749.09
2022-11-19T03:32:07.061Z,95748.16
2022-11-19T03:34:35.249Z,95748.69
2022-11-19T03:37:04.825Z,95745.66
2022-11-19T03:39:35.006Z,95745.66
2022-11-19T03:42:03.758Z,95740.31
2022-11-19T03:44:52.106Z,95743.03
2022-11-19T03:47:24.624Z,95739.00
2022-11-19T03:49:58.521Z,95737.59
2022-11-19T03:52:25.135Z,95731.78
2022-11-19T03:54:52.309Z,95731.50
2022-11-19T03:57:21.458Z,95734.66
2022-11-19T03:59:47.777Z,95736.19
2022-11-19T04:02:15.077Z,95743.34
2022-11-19T04:04:41.662Z,95741.59
2022-11-19T04:07:14.501Z,95746.63
2022-11-19T04:09:42.310Z,95757.00
2022-11-19T04:12:20.409Z,95751.78
2022-11-19T04:14:47.442Z,95749.53
2022-11-19T04:17:14.570Z,95741.41
2022-11-19T04:19:41.106Z,95740.44
2022-11-19T04:22:07.851Z,95742.28
2022-11-19T04:24:34.201Z,95735.66
2022-11-19T04:27:00.719Z,95734.44
2022-11-19T04:29:27.472Z,95737.19
2022-11-19T04:31:53.897Z,95731.13
2022-11-19T04:34:20.297Z,95738.59
2022-11-19T04:36:46.686Z,95733.31
2022-11-19T04:39:13.126Z,95732.25
2022-11-19T04:41:40.838Z,95737.09
2022-11-19T04:44:07.405Z,95736.53
2022-11-19T04:46:34.187Z,95738.88
2022-11-19T04:49:00.746Z,95735.38
2022-11-19T04:51:27.090Z,95740.25
2022-11-19T04:53:54.457Z,95743.59
2022-11-19T04:56:20.898Z,95742.75
2022-11-19T04:58:47.438Z,95744.91
2022-11-19T05:01:13.793Z,95749.19
2022-11-19T05:03:40.337Z,95747.66
2022-11-19T05:06:07.077Z,95740.63
2022-11-19T05:08:33.482Z,95744.78
2022-11-19T05:10:59.816Z,95740.00
2022-11-19T05:13:26.142Z,95742.06
2022-11-19T05:15:52.670Z,95742.72
2022-11-19T05:18:19.008Z,95746.06
2022-11-19T05:20:45.363Z,95746.31
2022-11-19T05:23:11.692Z,95737.59
2022-11-19T05:25:38.067Z,95743.88
2022-11-19T05:28:04.581Z,95741.66
2022-11-19T05:30:30.933Z,95747.97
2022-11-19T05:32:57.269Z,95744.13
2022-11-19T05:35:23.697Z,95741.66
2022-11-19T05:37:50.885Z,95736.97
2022-11-19T05:40:18.349Z,95744.69
2022-11-19T05:42:44.773Z,95746.03
2022-11-19T05:45:11.833Z,95746.31
2022-11-19T05:47:38.529Z,95751.25
2022-11-19T05:50:05.661Z,95749.06
2022-11-19T05:52:32.018Z,95750.44
2022-11-19T05:54:58.352Z,95764.19
2022-11-19T05:57:24.706Z,95766.13
2022-11-19T05:59:51.111Z,95768.31
2022-11-19T06:02:17.756Z,95763.88
2022-11-19T06:04:44.595Z,95769.66
2022-11-19T06:07:10.955Z,95766.38
2022-11-19T06:09:38.859Z,95769.66
2022-11-19T06:12:05.407Z,95769.53
2022-11-19T06:14:31.754Z,95768.63
2022-11-19T06:16:59.586Z,95771.03
2022-11-19T06:19:26.556Z,95771.88
2022-11-19T06:21:53.210Z,95770.38
2022-11-19T06:24:20.602Z,95778.28
2022-11-19T06:26:47.042Z,95778.97
2022-11-19T06:29:15.166Z,95776.09
2022-11-19T06:31:41.612Z,95784.72
2022-11-19T06:34:08.186Z,95782.34
2022-11-19T06:36:39.065Z,95789.28
2022-11-19T06:39:08.638Z,95789.28
2022-11-19T06:41:35.465Z,95787.59
2022-11-19T06:44:02.050Z,95804.25
2022-11-19T06:46:28.381Z,95805.63
2022-11-19T06:48:54.698Z,95807.94
2022-11-19T06:51:21.049Z,95810.00
2022-11-19T06:53:47.419Z,95811.34
2022-11-19T06:56:13.734Z,95813.69
2022-11-19T06:58:40.189Z,95814.69
2022-11-19T07:01:06.889Z,95822.94
2022-11-19T07:03:33.211Z,95822.53
2022-11-19T07:06:02.612Z,95821.00
2022-11-19T07:08:31.579Z,95828.59
2022-11-19T07:10:57.896Z,95835.19
2022-11-19T07:13:24.225Z,95841.13
2022-11-19T07:15:50.560Z,95844.28
2022-11-19T07:18:16.949Z,95843.63
2022-11-19T07:20:46.019Z,95853.91
2022-11-19T07:23:13.090Z,95845.66
2022-11-19T07:25:39.440Z,95854.19
2022-11-19T07:28:05.853Z,95856.91
2022-11-19T07:30:32.247Z,95857.91
2022-11-19T07:32:58.586Z,95865.81
2022-11-19T07:35:24.947Z,95868.00
2022-11-19T07:37:51.277Z,95877.00
2022-11-19T07:40:17.669Z,95874.53
2022-11-19T07:42:50.154Z,95860.50
2022-11-19T07:45:19.992Z,95865.13
2022-11-19T07:47:46.626Z,95861.31
2022-11-19T07:50:13.562Z,95867.81
2022-11-19T07:52:40.203Z,95863.25
2022-11-19T07:55:07.494Z,95867.31
2022-11-19T07:57:33.827Z,95869.44
2022-11-19T08:00:00.422Z,95866.88
2022-11-19T08:02:26.883Z,95864.22
2022-11-19T08:04:53.257Z,95872.28
2022-11-19T08:07:19.662Z,95878.81
2022-11-19T08:09:46.029Z,95872.56
2022-11-19T08:12:12.355Z,95875.22
2022-11-19T08:14:38.697Z,95868.56
2022-11-19T08:17:23.905Z,95877.91
2022-11-19T08:19:50.269Z,95873.78
2022-11-19T08:22:16.587Z,95875.72
2022-11-19T08:24:44.267Z,95877.69
2022-11-19T08:27:10.931Z,95877.13
2022-11-19T08:29:37.274Z,95878.88
2022-11-19T08:32:03.868Z,95876.72
2022-11-19T08:34:32.063Z,95887.84
2022-11-19T08:36:58.446Z,95882.03
2022-11-19T08:39:24.792Z,95881.09
2022-11-19T08:42:09.836Z,95886.63
2022-11-19T08:44:36.155Z,95886.19
2022-11-19T08:47:02.482Z,95885.66
2022-11-19T08:49:28.801Z,95881.34
2022-11-19T08:51:57.373Z,95884.66
2022-11-19T08:54:23.713Z,95890.13
2022-11-19T08:56:50.109Z,95890.56
2022-11-19T08:59:16.440Z,95895.47
2022-11-19T09:01:42.767Z,95893.28
2022-11-19T09:04:09.857Z,95888.47
2022-11-19T09:06:36.268Z,95891.56
2022-11-19T09:09:04.429Z,95893.34
2022-11-19T09:11:30.950Z,95896.66
2022-11-19T09:13:58.034Z,95895.69
2022-11-19T09:16:24.614Z,95893.91
2022-11-19T09:18:50.942Z,95895.97
2022-11-19T09:21:17.338Z,95900.34
2022-11-19T09:23:43.960Z,95900.06
2022-11-19T09:26:16.353Z,95894.50
2022-11-19T09:28:43.588Z,95897.50
2022-11-19T09:31:12.968Z,95899.25
2022-11-19T09:33:44.238Z,95898.69
2022-11-19T09:36:11.472Z,95906.56
2022-11-19T09:38:39.968Z,95907.50
2022-11-19T09:41:22.596Z,95906.94
2022-11-19T09:44:24.595Z,95914.25
2022-11-19T09:47:05.569Z,95911.31
2022-11-19T09:50:01.793Z,95913.28
2022-11-19T09:52:33.739Z,95913.94
2022-11-19T09:55:01.455Z,95913.56
2022-11-19T09:57:38.898Z,95918.09
2022-11-19T10:00:08.870Z,95920.47
2022-11-19T10:02:35.456Z,95909.69
2022-11-19T10:05:02.862Z,95909.28
2022-11-19T10:07:53.866Z,95908.34
2022-11-19T10:10:28.548Z,95899.00
2022-11-19T10:13:12.401Z,95900.09
2022-11-19T10:15:53.984Z,95903.09
2022-11-19T10:18:39.470Z,95900.06
2022-11-19T10:21:14.383Z,95903.13
2022-11-19T10:23:52.682Z,95895.97
2022-11-19T10:26:29.541Z,95896.34
2022-11-19T10:28:57.859Z,95887.63
2022-11-19T10:31:32.748Z,95889.78
2022-11-19T10:34:20.213Z,95883.81
2022-11-19T10:36:57.461Z,95882.63
2022-11-19T10:39:46.566Z,95886.34
2022-11-19T10:42:37.366Z,95879.75
2022-11-19T10:45:16.716Z,95875.28
2022-11-19T10:48:12.601Z,95878.47
2022-11-19T10:50:39.598Z,95879.91
2022-11-19T10:53:18.995Z,95876.97
2022-11-19T10:55:54.514Z,95875.47
2022-11-19T10:58:28.682Z,95871.22
2022-11-19T11:00:57.962Z,95867.19
2022-11-19T11:03:31.382Z,95870.22
2022-11-19T11:06:06.207Z,95870.34
2022-11-19T11:08:33.986Z,95860.13
2022-11-19T11:11:04.281Z,95858.97
2022-11-19T11:14:16.193Z,95859.22
2022-11-19T11:16:46.619Z,95863.97
2022-11-19T11:19:18.206Z,95861.56
2022-11-19T11:21:45.632Z,95858.31
2022-11-19T11:24:13.834Z,95858.72
2022-11-19T11:26:40.820Z,95856.19
2022-11-19T11:29:26.760Z,95852.50
2022-11-19T11:31:53.997Z,95848.53
2022-11-19T11:34:37.958Z,95842.53
2022-11-19T11:37:08.490Z,95840.69
2022-11-19T11:39:38.577Z,95838.72
2022-11-19T11:42:14.595Z,95834.09
2022-11-19T11:44:56.004Z,95825.75
2022-11-19T11:47:27.467Z,95829.25
2022-11-19T11:50:07.430Z,95833.28
2022-11-19T11:52:42.387Z,95830.84
2022-11-19T11:55:24.005Z,95828.97
2022-11-19T11:58:05.438Z,95835.22
2022-11-19T12:00:39.659Z,95829.78
2022-11-19T12:03:20.178Z,95825.47
2022-11-19T12:06:00.239Z,95827.56
2022-11-19T12:08:48.402Z,95833.00
2022-11-19T12:11:53.458Z,95833.00
2022-11-19T12:14:58.851Z,95835.19
2022-11-19T12:17:31.739Z,95838.19
2022-11-19T12:20:00.965Z,95836.47
2022-11-19T12:22:45.737Z,95830.63
2022-11-19T12:25:37.439Z,95822.28
2022-11-19T12:28:25.243Z,95822.13
2022-11-19T12:31:30.086Z,95827.75
2022-11-19T12:34:13.062Z,95830.16
2022-11-19T12:37:20.354Z,95823.88
2022-11-19T12:40:11.808Z,95828.53
2022-11-19T12:43:14.502Z,95826.88
2022-11-19T12:45:56.016Z,95821.72
2022-11-19T12:48:34.798Z,95822.50
2022-11-19T12:51:14.058Z,95830.06
2022-11-19T12:54:09.932Z,95813.06
2022-11-19T12:56:51.268Z,95825.13
2022-11-19T12:59:27.456Z,95816.75
2022-11-19T13:01:56.235Z,95811.72
2022-11-19T13:05:01.671Z,95818.66
2022-11-19T13:08:07.130Z,95818.06
2022-11-19T13:10:38.797Z,95821.28
2022-11-19T13:13:09.700Z,95822.22
2022-11-19T13:15:43.341Z,95821.81
2022-11-19T13:18:14.777Z,95817.19
2022-11-19T13:20:49.473Z,95822.94
2022-11-19T13:23:24.516Z,95825.59
2022-11-19T13:25:58.434Z,95823.03
2022-11-19T13:28:43.702Z,95824.34
2022-11-19T13:31:16.899Z,95819.72
2022-11-19T13:33:52.553Z,95814.00
2022-11-19T13:36:26.506Z,95824.72
2022-11-19T13:39:01.731Z,95822.22
2022-11-19T13:41:59.202Z,95824.69
2022-11-19T13:44:43.926Z,95826.09
2022-11-19T13:47:21.133Z,95815.69
2022-11-19T13:49:54.655Z,95813.56
2022-11-19T13:52:30.619Z,95818.47
2022-11-19T13:54:59.362Z,95811.31
2022-11-19T13:57:43.873Z,95809.91
2022-11-19T14:00:27.514Z,95809.19
2022-11-19T14:03:12.746Z,95807.97
2022-11-19T14:06:03.889Z,95812.53
2022-11-19T14:08:54.968Z,95815.63
2022-11-19T14:11:49.895Z,95826.22
2022-11-19T14:14:54.167Z,95821.25
2022-11-19T14:18:03.461Z,95824.31
2022-11-19T14:20:52.105Z,95822.81
2022-11-19T14:24:06.247Z,95821.31
2022-11-19T14:26:46.540Z,95827.75
2022-11-19T14:29:18.472Z,95835.41
2022-11-19T14:32:00.995Z,95828.00
2022-11-19T14:34:30.901Z,95831.94
2022-11-19T14:37:00.218Z,95830.97
2022-11-19T14:39:31.090Z,95835.16
2022-11-19T14:42:13.834Z,95823.72
2022-11-19T14:44:41.366Z,95831.59
2022-11-19T14:47:26.180Z,95832.91
2022-11-19T14:50:02.824Z,95838.69
2022-11-19T14:52:39.626Z,95832.63
2022-11-19T14:55:28.432Z,95834.16
2022-11-19T14:57:56.709Z,95836.81
2022-11-19T15:00:22.999Z,95840.31
2022-11-19T15:02:53.166Z,95835.94
2022-11-19T15:05:27.857Z,95831.25
2022-11-19T15:08:18.785Z,95833.69
2022-11-19T15:11:01.446Z,95843.97
2022-11-19T15:13:30.060Z,95845.25
2022-11-19T15:16:05.099Z,95844.59
2022-11-19T15:18:37.208Z,95843.69
2022-11-19T15:21:41.234Z,95847.56
2022-11-19T15:24:46.468Z,95845.31
2022-11-19T15:27:31.856Z,95851.56
2022-11-19T15:30:07.062Z,95854.16
2022-11-19T15:33:02.170Z,95858.63
2022-11-19T15:35:46.814Z,95850.16
2022-11-19T15:38:18.508Z,95852.50
2022-11-19T15:40:48.213Z,95863.34
2022-11-19T15:43:39.239Z,95862.28
2022-11-19T15:46:30.301Z,95858.88
2022-11-19T15:49:24.101Z,95854.25
2022-11-19T15:52:05.265Z,95853.34
2022-11-19T15:54:34.148Z,95858.63
2022-11-19T15:57:06.712Z,95863.38
2022-11-19T15:59:37.769Z,95862.81
2022-11-19T16:02:16.189Z,95861.81
2022-11-19T16:04:42.672Z,95871.97
2022-11-19T16:07:10.717Z,95869.00
2022-11-19T16:09:37.935Z,95876.31
2022-11-19T16:12:22.928Z,95877.28
2022-11-19T16:15:09.885Z,95885.63
2022-11-19T16:17:46.814Z,95885.00
2022-11-19T16:20:13.130Z,95888.44
2022-11-19T16:23:03.303Z,95890.13
2022-11-19T16:25:42.784Z,95899.59
2022-11-19T16:28:23.870Z,95896.66
2022-11-19T16:31:00.663Z,95899.38
2022-11-19T16:33:29.893Z,95902.94
2022-11-19T16:36:17.329Z,95914.31
2022-11-19T16:38:47.769Z,95922.91
2022-11-19T16:41:34.959Z,95919.75
2022-11-19T16:44:08.926Z,95928.00
2022-11-19T16:46:35.819Z,95923.78
2022-11-19T16:49:03.375Z,95919.88
2022-11-19T16:51:55.078Z,95929.63
2022-11-19T16:54:48.309Z,95927.72
2022-11-19T16:57:19.041Z,95931.56
2022-11-19T16:59:50.725Z,95932.69
2022-11-19T17:02:20.095Z,95930.47
2022-11-19T17:04:49.218Z,95927.56
2022-11-19T17:07:27.294Z,95933.91
2022-11-19T17:10:31.753Z,95939.69
2022-11-19T17:12:59.738Z,95937.50
2022-11-19T17:15:49.032Z,95948.19
2022-11-19T17:18:17.249Z,95947.34
2022-11-19T17:20:43.521Z,95938.66
2022-11-19T17:23:18.534Z,95953.16
2022-11-19T17:25:58.067Z,95954.28
2022-11-19T17:28:35.286Z,95966.34
2022-11-19T17:31:06.825Z,95963.03
2022-11-19T17:33:36.585Z,95966.56
2022-11-19T17:36:03.686Z,95963.19
2022-11-19T17:38:32.253Z,95970.22
2022-11-19T17:41:04.894Z,95957.28
2022-11-19T17:43:53.016Z,95974.75
2022-11-19T17:46:20.342Z,95971.03
2022-11-19T17:48:48.592Z,95965.53
2022-11-19T17:51:18.345Z,95968.53
2022-11-19T17:53:45.404Z,95974.75
2022-11-19T17:56:18.454Z,95975.72
2022-11-19T17:58:44.914Z,95978.19
2022-11-19T18:01:13.703Z,95982.47
2022-11-19T18:03:40.081Z,95982.59
2022-11-19T18:06:08.409Z,95993.56
2022-11-19T18:08:36.546Z,95981.22
2022-11-19T18:11:04.632Z,95984.22
2022-11-19T18:13:33.507Z,95994.13
2022-11-19T18:15:59.840Z,95997.44
2022-11-19T18:18:26.256Z,95998.69
2022-11-19T18:20:56.442Z,95998.56
2022-11-19T18:23:25.591Z,95993.06
2022-11-19T18:25:51.894Z,95989.88
2022-11-19T18:28:18.270Z,95998.25
2022-11-19T18:30:44.614Z,95998.13
2022-11-19T18:33:11.343Z,96001.97
2022-11-19T18:35:37.691Z,96007.34
2022-11-19T18:38:04.094Z,96003.22
2022-11-19T18:40:30.483Z,96008.44
2022-11-19T18:43:15.542Z,96004.97
2022-11-19T18:45:41.861Z,96011.94
2022-11-19T18:48:08.217Z,95997.56
2022-11-19T18:50:34.525Z,96012.81
2022-11-19T18:53:00.829Z,96008.34
2022-11-19T18:55:27.436Z,96009.84
2022-11-19T18:57:53.786Z,96012.03
2022-11-19T19:00:20.422Z,96016.19
2022-11-19T19:02:46.748Z,96016.06
2022-11-19T19:05:13.071Z,96020.19
2022-11-19T19:07:39.404Z,96024.56
2022-11-19T19:10:06.372Z,96030.78
2022-11-19T19:12:32.726Z,96030.78
2022-11-19T19:14:59.261Z,96032.44
2022-11-19T19:17:26.278Z,96035.72
2022-11-19T19:19:52.709Z,96031.59
2022-11-19T19:22:19.225Z,96046.19
2022-11-19T19:24:45.919Z,96038.41
2022-11-19T19:27:12.520Z,96039.94
2022-11-19T19:29:39.758Z,96047.88
2022-11-19T19:32:06.392Z,96051.66
2022-11-19T19:34:32.975Z,96051.09
2022-11-19T19:36:59.358Z,96054.81
2022-11-19T19:39:26.195Z,96057.94
2022-11-19T19:41:52.609Z,96046.66
2022-11-19T19:44:18.932Z,96050.56
2022-11-19T19:46:48.502Z,96046.41
2022-11-19T19:49:14.990Z,96049.84
2022-11-19T19:51:41.646Z,96041.19
2022-11-19T19:54:08.141Z,96052.31
2022-11-19T19:56:34.533Z,96047.25
2022-11-19T19:59:01.726Z,96040.63
2022-11-19T20:01:30.719Z,96049.03
2022-11-19T20:04:08.883Z,96046.22
2022-11-19T20:06:37.787Z,96045.97
2022-11-19T20:09:08.368Z,96051.34
2022-11-19T20:11:36.758Z,96053.53
2022-11-19T20:14:03.952Z,96059.66
2022-11-19T20:16:32.234Z,96059.06
2022-11-19T20:19:00.174Z,96064.47
2022-11-19T20:21:33.671Z,96066.53
2022-11-19T20:24:00.250Z,96068.59
2022-11-19T20:26:29.406Z,96067.47
2022-11-19T20:28:57.995Z,96068.72
2022-11-19T20:31:25.372Z,96061.56
2022-11-19T20:33:55.143Z,96061.28
2022-11-19T20:36:23.437Z,96062.41
2022-11-19T20:38:49.784Z,96066.22
2022-11-19T20:41:37.074Z,96065.38
2022-11-19T20:44:20.217Z,96073.66
2022-11-19T20:47:02.445Z,96069.00
2022-11-19T20:49:30.817Z,96069.41
2022-11-19T20:51:57.237Z,96073.22
2022-11-19T20:54:24.440Z,96073.59
2022-11-19T20:56:52.014Z,96068.22
2022-11-19T20:59:19.433Z,96075.13
2022-11-19T21:01:48.114Z,96068.97
2022-11-19T21:04:14.618Z,96076.91
2022-11-19T21:06:41.190Z,96068.38
2022-11-19T21:09:07.654Z,96072.44
2022-11-19T21:11:34.242Z,96074.22
2022-11-19T21:14:00.954Z,96076.13
2022-11-19T21:16:28.944Z,96075.06
2022-11-19T21:18:55.886Z,96073.13
2022-11-19T21:21:24.040Z,96071.72
2022-11-19T21:23:51.735Z,96071.72
2022-11-19T21:26:23.326Z,96074.28
2022-11-19T21:28:52.490Z,96075.47
2022-11-19T21:31:47.500Z,96068.88
2022-11-19T21:34:15.766Z,96066.28
2022-11-19T21:36:43.625Z,96067.81
2022-11-19T21:39:11.047Z,96069.50
2022-11-19T21:41:37.701Z,96069.50
2022-11-19T21:44:04.866Z,96074.88
2022-11-19T21:46:31.561Z,96067.72
2022-11-19T21:48:58.020Z,96079.81
2022-11-19T21:51:25.347Z,96072.88
2022-11-19T21:53:58.625Z,96077.53
2022-11-19T21:56:26.774Z,96071.75
2022-11-19T21:58:53.125Z,96073.72
2022-11-19T22:01:20.010Z,96073.28
2022-11-19T22:03:46.600Z,96077.13
2022-11-19T22:06:13.167Z,96071.69
2022-11-19T22:08:41.597Z,96074.59
2022-11-19T22:11:28.454Z,96064.72
2022-11-19T22:13:56.227Z,96073.09
2022-11-19T22:16:23.218Z,96078.06
2022-11-19T22:18:49.599Z,96077.91
2022-11-19T22:21:16.048Z,96077.06
2022-11-19T22:23:42.517Z,96085.63
2022-11-19T22:26:11.125Z,96083.88
2022-11-19T22:28:37.777Z,96090.06
2022-11-19T22:31:04.944Z,96072.56
2022-11-19T22:33:37.113Z,96088.78
2022-11-19T22:36:09.859Z,96087.56
2022-11-19T22:38:37.607Z,96081.56
2022-11-19T22:41:07.008Z,96080.31
2022-11-19T22:43:35.229Z,96093.22
2022-11-19T22:46:02.034Z,96097.28
2022-11-19T22:48:29.754Z,96091.56
2022-11-19T22:50:56.065Z,96095.19
2022-11-19T22:53:22.787Z,96096.44
2022-11-19T22:55:49.178Z,96096.72
2022-11-19T22:58:15.512Z,96096.53
2022-11-19T23:00:48.131Z,96103.44
2022-11-19T23:03:15.338Z,96104.47
2022-11-19T23:05:46.595Z,96105.75
2022-11-19T23:08:12.924Z,96110.47
2022-11-19T23:10:39.287Z,96108.00
2022-11-19T23:13:24.364Z,96116.38
2022-11-19T23:16:15.426Z,96116.50
2022-11-19T23:18:47.122Z,96118.00
2022-11-19T23:21:25.545Z,96115.97
2022-11-19T23:23:52.305Z,96112.22
2022-11-19T23:26:21.133Z,96110.06
2022-11-19T23:28:47.605Z,96109.06
2022-11-19T23:31:16.749Z,96112.41
2022-11-19T23:33:43.811Z,96115.09
2022-11-19T23:36:31.035Z,96114.25
2022-11-19T23:38:57.766Z,96109.84
2022-11-19T23:41:24.566Z,96107.03
2022-11-19T23:43:53.169Z,96114.09
2022-11-19T23:46:25.813Z,96113.22
2022-11-19T23:48:54.466Z,96118.16
2022-11-19T23:51:23.913Z,96110.84
2022-11-19T23:53:50.858Z,96105.19
2022-11-19T23:56:18.720Z,96107.78
2022-11-19T23:58:45.376Z,96112.16
